sensor_id;sensor_type;location;lat;lon;timestamp;pressure;altitude;pressure_sealevel;temperature;humidity
62201;BME280;48197;42.732;27.192;2023-07-13T00:00:10;99811.81;;;20.02;100.00
62201;BME280;48197;42.732;27.192;2023-07-13T00:02:37;99810.72;;;20.08;100.00
62201;BME280;48197;42.732;27.192;2023-07-13T00:05:05;99812.88;;;20.13;100.00
62201;BME280;48197;42.732;27.192;2023-07-13T00:07:33;99811.00;;;20.19;100.00
62201;BME280;48197;42.732;27.192;2023-07-13T00:10:01;99797.28;;;20.22;100.00
62201;BME280;48197;42.732;27.192;2023-07-13T00:12:31;99803.69;;;20.22;100.00
62201;BME280;48197;42.732;27.192;2023-07-13T00:14:59;99801.34;;;20.21;100.00
62201;BME280;48197;42.732;27.192;2023-07-13T00:17:27;99804.94;;;20.21;100.00
62201;BME280;48197;42.732;27.192;2023-07-13T00:19:55;99799.78;;;20.19;100.00
62201;BME280;48197;42.732;27.192;2023-07-13T00:22:22;99799.78;;;20.19;100.00
62201;BME280;48197;42.732;27.192;2023-07-13T00:24:55;99797.44;;;20.18;100.00
62201;BME280;48197;42.732;27.192;2023-07-13T00:27:25;99798.69;;;20.17;100.00
62201;BME280;48197;42.732;27.192;2023-07-13T00:29:55;99792.47;;;20.13;100.00
62201;BME280;48197;42.732;27.192;2023-07-13T00:32:22;99791.38;;;20.10;100.00
62201;BME280;48197;42.732;27.192;2023-07-13T00:34:49;99795.13;;;20.07;100.00
62201;BME280;48197;42.732;27.192;2023-07-13T00:37:16;99794.34;;;19.97;100.00
62201;BME280;48197;42.732;27.192;2023-07-13T00:39:44;99785.78;;;19.92;100.00
62201;BME280;48197;42.732;27.192;2023-07-13T00:42:11;99793.41;;;19.91;100.00
62201;BME280;48197;42.732;27.192;2023-07-13T00:44:39;99780.94;;;20.02;100.00
62201;BME280;48197;42.732;27.192;2023-07-13T00:47:05;99779.69;;;20.03;100.00
62201;BME280;48197;42.732;27.192;2023-07-13T00:49:33;99781.25;;;20.04;100.00
62201;BME280;48197;42.732;27.192;2023-07-13T00:52:02;99765.81;;;19.99;100.00
62201;BME280;48197;42.732;27.192;2023-07-13T00:54:39;99768.16;;;19.91;100.00
62201;BME280;48197;42.732;27.192;2023-07-13T00:57:09;99760.06;;;19.84;100.00
62201;BME280;48197;42.732;27.192;2023-07-13T00:59:38;99763.03;;;19.81;100.00
62201;BME280;48197;42.732;27.192;2023-07-13T01:02:07;99750.41;;;19.76;100.00
62201;BME280;48197;42.732;27.192;2023-07-13T01:04:32;99752.09;;;19.73;100.00
62201;BME280;48197;42.732;27.192;2023-07-13T01:06:59;99750.56;;;19.72;100.00
62201;BME280;48197;42.732;27.192;2023-07-13T01:09:27;99753.06;;;19.70;100.00
62201;BME280;48197;42.732;27.192;2023-07-13T01:11:54;99762.22;;;19.71;100.00
62201;BME280;48197;42.732;27.192;2023-07-13T01:14:21;99756.94;;;19.73;100.00
62201;BME280;48197;42.732;27.192;2023-07-13T01:16:48;99765.66;;;19.75;100.00
62201;BME280;48197;42.732;27.192;2023-07-13T01:22:08;99757.41;;;19.71;100.00
62201;BME280;48197;42.732;27.192;2023-07-13T01:24:36;99752.06;;;19.64;100.00
62201;BME280;48197;42.732;27.192;2023-07-13T01:27:03;99759.53;;;19.58;100.00
62201;BME280;48197;42.732;27.192;2023-07-13T01:29:33;99743.34;;;19.53;100.00
62201;BME280;48197;42.732;27.192;2023-07-13T01:32:00;99745.53;;;19.49;100.00
62201;BME280;48197;42.732;27.192;2023-07-13T01:34:27;99750.81;;;19.47;100.00
62201;BME280;48197;42.732;27.192;2023-07-13T01:36:54;99748.34;;;19.49;100.00
62201;BME280;48197;42.732;27.192;2023-07-13T01:39:21;99753.63;;;19.47;100.00
62201;BME280;48197;42.732;27.192;2023-07-13T01:41:49;99744.91;;;19.45;100.00
62201;BME280;48197;42.732;27.192;2023-07-13T01:44:16;99747.38;;;19.43;100.00
62201;BME280;48197;42.732;27.192;2023-07-13T01:46:43;99740.53;;;19.44;100.00
62201;BME280;48197;42.732;27.192;2023-07-13T01:49:10;99741.00;;;19.42;100.00
62201;BME280;48197;42.732;27.192;2023-07-13T01:51:37;99738.53;;;19.44;100.00
62201;BME280;48197;42.732;27.192;2023-07-13T01:54:04;99739.94;;;19.49;100.00
62201;BME280;48197;42.732;27.192;2023-07-13T01:56:31;99740.56;;;19.53;100.00
62201;BME280;48197;42.732;27.192;2023-07-13T01:58:58;99736.03;;;19.55;100.00
62201;BME280;48197;42.732;27.192;2023-07-13T02:01:25;99733.38;;;19.52;100.00
62201;BME280;48197;42.732;27.192;2023-07-13T02:03:53;99741.97;;;19.48;100.00
62201;BME280;48197;42.732;27.192;2023-07-13T02:06:20;99738.84;;;19.46;100.00
62201;BME280;48197;42.732;27.192;2023-07-13T02:08:47;99731.66;;;19.45;100.00
62201;BME280;48197;42.732;27.192;2023-07-13T02:11:14;99730.88;;;19.54;100.00
62201;BME280;48197;42.732;27.192;2023-07-13T02:13:41;99733.28;;;19.74;100.00
62201;BME280;48197;42.732;27.192;2023-07-13T02:16:08;99736.22;;;19.89;100.00
62201;BME280;48197;42.732;27.192;2023-07-13T02:18:36;99733.41;;;19.98;100.00
62201;BME280;48197;42.732;27.192;2023-07-13T02:21:03;99737.47;;;20.06;100.00
62201;BME280;48197;42.732;27.192;2023-07-13T02:23:30;99731.22;;;20.11;100.00
62201;BME280;48197;42.732;27.192;2023-07-13T02:25:58;99732.91;;;20.18;100.00
62201;BME280;48197;42.732;27.192;2023-07-13T02:28:25;99721.53;;;20.22;100.00
62201;BME280;48197;42.732;27.192;2023-07-13T02:30:53;99728.69;;;20.23;100.00
62201;BME280;48197;42.732;27.192;2023-07-13T02:33:20;99735.09;;;20.23;100.00
62201;BME280;48197;42.732;27.192;2023-07-13T02:35:45;99731.50;;;20.23;100.00
62201;BME280;48197;42.732;27.192;2023-07-13T02:38:12;99735.25;;;20.19;100.00
62201;BME280;48197;42.732;27.192;2023-07-13T02:40:39;99733.22;;;20.20;100.00
62201;BME280;48197;42.732;27.192;2023-07-13T02:43:06;99734.00;;;20.21;100.00
62201;BME280;48197;42.732;27.192;2023-07-13T02:45:34;99732.13;;;20.17;100.00
62201;BME280;48197;42.732;27.192;2023-07-13T02:48:01;99732.91;;;20.18;100.00
62201;BME280;48197;42.732;27.192;2023-07-13T02:50:28;99736.81;;;20.21;100.00
62201;BME280;48197;42.732;27.192;2023-07-13T02:52:55;99739.44;;;20.24;100.00
62201;BME280;48197;42.732;27.192;2023-07-13T02:55:22;99738.03;;;20.29;100.00
62201;BME280;48197;42.732;27.192;2023-07-13T02:57:50;99735.53;;;20.31;100.00
62201;BME280;48197;42.732;27.192;2023-07-13T03:00:17;99734.09;;;20.35;100.00
62201;BME280;48197;42.732;27.192;2023-07-13T03:02:43;99734.91;;;20.36;100.00
62201;BME280;48197;42.732;27.192;2023-07-13T03:05:11;99733.94;;;20.39;100.00
62201;BME280;48197;42.732;27.192;2023-07-13T03:07:39;99740.34;;;20.39;100.00
62201;BME280;48197;42.732;27.192;2023-07-13T03:10:07;99741.91;;;20.40;100.00
62201;BME280;48197;42.732;27.192;2023-07-13T03:12:34;99740.66;;;20.42;100.00
62201;BME280;48197;42.732;27.192;2023-07-13T03:15:01;99735.53;;;20.40;100.00
62201;BME280;48197;42.732;27.192;2023-07-13T03:17:29;99739.41;;;20.43;100.00
62201;BME280;48197;42.732;27.192;2023-07-13T03:19:56;99746.56;;;20.44;100.00
62201;BME280;48197;42.732;27.192;2023-07-13T03:22:24;99738.94;;;20.44;100.00
62201;BME280;48197;42.732;27.192;2023-07-13T03:24:50;99747.38;;;20.44;100.00
62201;BME280;48197;42.732;27.192;2023-07-13T03:27:18;99749.38;;;20.44;100.00
62201;BME280;48197;42.732;27.192;2023-07-13T03:29:43;99755.78;;;20.44;100.00
62201;BME280;48197;42.732;27.192;2023-07-13T03:32:11;99755.78;;;20.44;100.00
62201;BME280;48197;42.732;27.192;2023-07-13T03:34:38;99760.91;;;20.46;100.00
62201;BME280;48197;42.732;27.192;2023-07-13T03:37:05;99754.06;;;20.47;100.00
62201;BME280;48197;42.732;27.192;2023-07-13T03:39:33;99761.84;;;20.52;100.00
62201;BME280;48197;42.732;27.192;2023-07-13T03:42:00;99758.88;;;20.55;100.00
62201;BME280;48197;42.732;27.192;2023-07-13T03:44:27;99761.06;;;20.60;100.00
62201;BME280;48197;42.732;27.192;2023-07-13T03:46:54;99757.94;;;20.68;100.00
62201;BME280;48197;42.732;27.192;2023-07-13T03:49:21;99756.81;;;20.74;100.00
62201;BME280;48197;42.732;27.192;2023-07-13T03:51:48;99746.00;;;20.82;100.00
62201;BME280;48197;42.732;27.192;2023-07-13T03:54:15;99749.09;;;20.93;100.00
62201;BME280;48197;42.732;27.192;2023-07-13T03:56:42;99755.41;;;21.03;100.00
62201;BME280;48197;42.732;27.192;2023-07-13T03:59:09;99756.34;;;21.09;100.00
62201;BME280;48197;42.732;27.192;2023-07-13T04:01:37;99756.78;;;21.17;100.00
62201;BME280;48197;42.732;27.192;2023-07-13T04:04:04;99756.03;;;21.31;100.00
62201;BME280;48197;42.732;27.192;2023-07-13T04:06:31;99752.53;;;21.46;100.00
62201;BME280;48197;42.732;27.192;2023-07-13T04:08:59;99755.25;;;21.64;100.00
62201;BME280;48197;42.732;27.192;2023-07-13T04:11:28;99755.03;;;21.92;100.00
62201;BME280;48197;42.732;27.192;2023-07-13T04:13:56;99759.50;;;21.98;100.00
62201;BME280;48197;42.732;27.192;2023-07-13T04:16:23;99753.94;;;21.89;100.00
62201;BME280;48197;42.732;27.192;2023-07-13T04:18:50;99756.47;;;21.87;100.00
62201;BME280;48197;42.732;27.192;2023-07-13T04:21:21;99756.56;;;21.93;100.00
62201;BME280;48197;42.732;27.192;2023-07-13T04:23:48;99759.50;;;21.98;100.00
62201;BME280;48197;42.732;27.192;2023-07-13T04:26:15;99759.59;;;22.04;100.00
62201;BME280;48197;42.732;27.192;2023-07-13T04:28:43;99758.22;;;22.14;100.00
62201;BME280;48197;42.732;27.192;2023-07-13T04:31:10;99754.69;;;22.29;100.00
62201;BME280;48197;42.732;27.192;2023-07-13T04:33:37;99758.09;;;22.48;100.00
62201;BME280;48197;42.732;27.192;2023-07-13T04:36:05;99766.81;;;22.65;100.00
62201;BME280;48197;42.732;27.192;2023-07-13T04:38:33;99767.47;;;22.74;100.00
62201;BME280;48197;42.732;27.192;2023-07-13T04:41:01;99765.91;;;22.88;100.00
62201;BME280;48197;42.732;27.192;2023-07-13T04:43:29;99763.56;;;23.01;100.00
62201;BME280;48197;42.732;27.192;2023-07-13T04:45:57;99759.94;;;23.16;100.00
62201;BME280;48197;42.732;27.192;2023-07-13T04:48:24;99767.66;;;23.36;100.00
62201;BME280;48197;42.732;27.192;2023-07-13T04:50:55;99769.28;;;23.63;100.00
62201;BME280;48197;42.732;27.192;2023-07-13T04:53:23;99773.66;;;23.84;100.00
62201;BME280;48197;42.732;27.192;2023-07-13T04:55:51;99773.88;;;24.01;100.00
62201;BME280;48197;42.732;27.192;2023-07-13T04:58:18;99771.94;;;24.13;100.00
62201;BME280;48197;42.732;27.192;2023-07-13T05:00:45;99777.91;;;24.21;100.00
62201;BME280;48197;42.732;27.192;2023-07-13T05:03:12;99780.84;;;24.32;100.00
62201;BME280;48197;42.732;27.192;2023-07-13T05:05:39;99780.44;;;24.45;100.00
62201;BME280;48197;42.732;27.192;2023-07-13T05:08:04;99784.19;;;24.57;100.00
62201;BME280;48197;42.732;27.192;2023-07-13T05:10:32;99779.16;;;24.67;100.00
62201;BME280;48197;42.732;27.192;2023-07-13T05:12:59;99795.84;;;24.70;100.00
62201;BME280;48197;42.732;27.192;2023-07-13T05:15:27;99789.25;;;24.79;100.00
62201;BME280;48197;42.732;27.192;2023-07-13T05:17:54;99796.81;;;24.93;100.00
62201;BME280;48197;42.732;27.192;2023-07-13T05:20:21;99791.81;;;25.14;100.00
62201;BME280;48197;42.732;27.192;2023-07-13T05:22:48;99801.81;;;25.41;100.00
62201;BME280;48197;42.732;27.192;2023-07-13T05:25:15;99799.28;;;25.55;100.00
62201;BME280;48197;42.732;27.192;2023-07-13T05:27:43;99797.56;;;25.74;100.00
62201;BME280;48197;42.732;27.192;2023-07-13T05:30:12;99784.00;;;25.90;100.00
62201;BME280;48197;42.732;27.192;2023-07-13T05:32:40;99784.84;;;26.07;100.00
62201;BME280;48197;42.732;27.192;2023-07-13T05:35:07;99793.91;;;26.22;100.00
62201;BME280;48197;42.732;27.192;2023-07-13T05:37:34;99796.22;;;26.41;100.00
62201;BME280;48197;42.732;27.192;2023-07-13T05:40:02;99803.72;;;26.44;100.00
62201;BME280;48197;42.732;27.192;2023-07-13T05:42:29;99798.56;;;26.48;100.00
62201;BME280;48197;42.732;27.192;2023-07-13T05:44:58;99796.81;;;26.79;100.00
62201;BME280;48197;42.732;27.192;2023-07-13T05:47:23;99805.78;;;27.05;100.00
62201;BME280;48197;42.732;27.192;2023-07-13T05:49:50;99795.22;;;27.28;100.00
62201;BME280;48197;42.732;27.192;2023-07-13T05:52:18;99803.47;;;27.38;100.00
62201;BME280;48197;42.732;27.192;2023-07-13T05:54:45;99797.19;;;27.67;100.00
62201;BME280;48197;42.732;27.192;2023-07-13T05:57:12;99802.44;;;28.05;100.00
62201;BME280;48197;42.732;27.192;2023-07-13T05:59:39;99805.84;;;28.39;100.00
62201;BME280;48197;42.732;27.192;2023-07-13T06:02:08;99802.28;;;28.75;100.00
62201;BME280;48197;42.732;27.192;2023-07-13T06:04:36;99806.81;;;29.19;100.00
62201;BME280;48197;42.732;27.192;2023-07-13T06:07:03;99802.72;;;29.39;100.00
62201;BME280;48197;42.732;27.192;2023-07-13T06:09:30;99810.03;;;29.78;100.00
62201;BME280;48197;42.732;27.192;2023-07-13T06:11:57;99804.75;;;30.07;100.00
62201;BME280;48197;42.732;27.192;2023-07-13T06:14:23;99807.59;;;30.45;100.00
62201;BME280;48197;42.732;27.192;2023-07-13T06:16:50;99800.72;;;30.86;98.79
62201;BME280;48197;42.732;27.192;2023-07-13T06:19:18;99805.50;;;31.10;97.52
62201;BME280;48197;42.732;27.192;2023-07-13T06:21:45;99809.50;;;31.73;94.87
62201;BME280;48197;42.732;27.192;2023-07-13T06:24:12;99794.44;;;32.00;93.04
62201;BME280;48197;42.732;27.192;2023-07-13T06:26:39;99780.31;;;32.15;85.86
62201;BME280;48197;42.732;27.192;2023-07-13T06:29:07;99794.00;;;32.85;83.54
62201;BME280;48197;42.732;27.192;2023-07-13T06:31:34;99791.34;;;33.37;80.12
62201;BME280;48197;42.732;27.192;2023-07-13T06:34:01;99790.25;;;33.76;78.14
62201;BME280;48197;42.732;27.192;2023-07-13T06:36:28;99786.34;;;34.03;76.33
62201;BME280;48197;42.732;27.192;2023-07-13T06:38:55;99794.47;;;34.27;71.16
62201;BME280;48197;42.732;27.192;2023-07-13T06:41:22;99794.69;;;34.45;65.68
62201;BME280;48197;42.732;27.192;2023-07-13T06:43:52;99785.38;;;34.83;63.96
62201;BME280;48197;42.732;27.192;2023-07-13T06:46:21;99787.66;;;35.30;62.09
62201;BME280;48197;42.732;27.192;2023-07-13T06:48:48;99782.63;;;35.54;61.58
62201;BME280;48197;42.732;27.192;2023-07-13T06:51:15;99788.69;;;35.73;60.19
62201;BME280;48197;42.732;27.192;2023-07-13T06:53:42;99783.03;;;35.98;59.31
62201;BME280;48197;42.732;27.192;2023-07-13T06:56:10;99774.25;;;36.29;58.64
62201;BME280;48197;42.732;27.192;2023-07-13T06:58:37;99771.81;;;36.26;57.75
62201;BME280;48197;42.732;27.192;2023-07-13T07:01:04;99776.75;;;36.58;57.04
62201;BME280;48197;42.732;27.192;2023-07-13T07:03:32;99779.69;;;37.01;55.75
62201;BME280;48197;42.732;27.192;2023-07-13T07:06:17;99776.34;;;37.29;54.32
62201;BME280;48197;42.732;27.192;2023-07-13T07:08:44;99776.69;;;37.68;52.63
62201;BME280;48197;42.732;27.192;2023-07-13T07:11:16;99766.75;;;37.96;51.73
62201;BME280;48197;42.732;27.192;2023-07-13T07:13:43;99764.09;;;38.08;50.65
62201;BME280;48197;42.732;27.192;2023-07-13T07:16:10;99766.78;;;38.51;48.83
62201;BME280;48197;42.732;27.192;2023-07-13T07:18:38;99766.66;;;39.05;43.58
62201;BME280;48197;42.732;27.192;2023-07-13T07:21:05;99769.25;;;38.64;43.77
62201;BME280;48197;42.732;27.192;2023-07-13T07:23:32;99767.72;;;38.63;43.88
62201;BME280;48197;42.732;27.192;2023-07-13T07:25:59;99761.31;;;39.11;42.75
62201;BME280;48197;42.732;27.192;2023-07-13T07:28:25;99770.00;;;39.11;42.30
62201;BME280;48197;42.732;27.192;2023-07-13T07:30:55;99761.69;;;39.35;42.26
62201;BME280;48197;42.732;27.192;2023-07-13T07:33:23;99766.25;;;39.87;40.89
62201;BME280;48197;42.732;27.192;2023-07-13T07:35:49;99768.66;;;40.00;39.41
62201;BME280;48197;42.732;27.192;2023-07-13T07:38:17;99762.88;;;39.90;39.12
62201;BME280;48197;42.732;27.192;2023-07-13T07:40:44;99765.78;;;39.71;38.74
62201;BME280;48197;42.732;27.192;2023-07-13T07:43:11;99768.38;;;39.76;38.62
62201;BME280;48197;42.732;27.192;2023-07-13T07:45:39;99755.75;;;39.72;38.40
62201;BME280;48197;42.732;27.192;2023-07-13T07:48:06;99765.16;;;39.92;37.83
62201;BME280;48197;42.732;27.192;2023-07-13T07:50:33;99763.97;;;39.85;37.99
62201;BME280;48197;42.732;27.192;2023-07-13T07:53:00;99759.97;;;40.10;37.22
62201;BME280;48197;42.732;27.192;2023-07-13T07:55:29;99752.66;;;40.50;36.02
62201;BME280;48197;42.732;27.192;2023-07-13T07:57:56;99754.56;;;40.67;35.19
62201;BME280;48197;42.732;27.192;2023-07-13T08:00:23;99755.91;;;40.75;35.25
62201;BME280;48197;42.732;27.192;2023-07-13T08:02:50;99759.03;;;40.89;35.03
62201;BME280;48197;42.732;27.192;2023-07-13T08:05:18;99750.97;;;40.88;34.38
62201;BME280;48197;42.732;27.192;2023-07-13T08:07:45;99755.16;;;40.75;34.72
62201;BME280;48197;42.732;27.192;2023-07-13T08:10:12;99753.53;;;40.62;34.64
62201;BME280;48197;42.732;27.192;2023-07-13T08:12:39;99751.81;;;40.37;34.93
62201;BME280;48197;42.732;27.192;2023-07-13T08:15:10;99748.28;;;40.39;34.75
62201;BME280;48197;42.732;27.192;2023-07-13T08:17:37;99742.19;;;40.45;34.71
62201;BME280;48197;42.732;27.192;2023-07-13T08:20:04;99745.94;;;40.57;34.75
62201;BME280;48197;42.732;27.192;2023-07-13T08:22:31;99746.63;;;40.77;34.76
62201;BME280;48197;42.732;27.192;2023-07-13T08:24:58;99741.66;;;41.11;33.57
62201;BME280;48197;42.732;27.192;2023-07-13T08:27:26;99743.78;;;41.53;33.55
62201;BME280;48197;42.732;27.192;2023-07-13T08:29:53;99729.31;;;41.32;33.04
62201;BME280;48197;42.732;27.192;2023-07-13T08:32:20;99730.91;;;41.45;32.97
62201;BME280;48197;42.732;27.192;2023-07-13T08:34:47;99736.53;;;41.64;32.27
62201;BME280;48197;42.732;27.192;2023-07-13T08:37:14;99733.56;;;41.86;31.83
62201;BME280;48197;42.732;27.192;2023-07-13T08:39:41;99720.25;;;41.59;31.99
62201;BME280;48197;42.732;27.192;2023-07-13T08:42:14;99716.41;;;41.56;31.81
62201;BME280;48197;42.732;27.192;2023-07-13T08:44:52;99728.44;;;41.62;31.61
62201;BME280;48197;42.732;27.192;2023-07-13T08:47:24;99726.31;;;41.63;31.78
62201;BME280;48197;42.732;27.192;2023-07-13T08:49:51;99724.06;;;41.73;31.73
62201;BME280;48197;42.732;27.192;2023-07-13T08:52:36;99723.28;;;41.61;30.87
62201;BME280;48197;42.732;27.192;2023-07-13T08:55:14;99725.47;;;41.17;32.03
62201;BME280;48197;42.732;27.192;2023-07-13T08:57:43;99722.38;;;41.25;31.39
62201;BME280;48197;42.732;27.192;2023-07-13T09:00:12;99721.34;;;41.20;30.94
62201;BME280;48197;42.732;27.192;2023-07-13T09:02:56;99714.91;;;41.22;30.71
62201;BME280;48197;42.732;27.192;2023-07-13T09:05:31;99717.38;;;41.16;30.73
62201;BME280;48197;42.732;27.192;2023-07-13T09:10:36;99717.50;;;40.96;29.50
62201;BME280;48197;42.732;27.192;2023-07-13T09:49:58;99683.41;;;40.64;28.38
62201;BME280;48197;42.732;27.192;2023-07-13T09:52:25;99682.06;;;40.33;28.42
62201;BME280;48197;42.732;27.192;2023-07-13T09:54:54;99672.78;;;39.84;29.69
62201;BME280;48197;42.732;27.192;2023-07-13T09:57:27;99684.78;;;39.71;29.60
62201;BME280;48197;42.732;27.192;2023-07-13T09:59:54;99674.13;;;39.83;29.81
62201;BME280;48197;42.732;27.192;2023-07-13T10:02:27;99671.09;;;39.91;29.05
62201;BME280;48197;42.732;27.192;2023-07-13T10:05:13;99662.50;;;40.03;28.91
62201;BME280;48197;42.732;27.192;2023-07-13T10:07:43;99661.78;;;40.33;28.90
62201;BME280;48197;42.732;27.192;2023-07-13T10:10:21;99654.72;;;40.46;28.20
62201;BME280;48197;42.732;27.192;2023-07-13T10:12:49;99647.09;;;40.72;28.35
62201;BME280;48197;42.732;27.192;2023-07-13T10:15:22;99640.47;;;40.81;27.66
62201;BME280;48197;42.732;27.192;2023-07-13T10:17:51;99636.47;;;40.87;28.52
62201;BME280;48197;42.732;27.192;2023-07-13T10:20:19;99640.97;;;41.11;28.11
62201;BME280;48197;42.732;27.192;2023-07-13T10:22:50;99627.06;;;40.98;27.61
62201;BME280;48197;42.732;27.192;2023-07-13T10:25:19;99620.41;;;40.74;27.46
62201;BME280;48197;42.732;27.192;2023-07-13T10:27:48;99625.91;;;40.70;28.09
62201;BME280;48197;42.732;27.192;2023-07-13T10:30:21;99619.47;;;40.50;28.17
62201;BME280;48197;42.732;27.192;2023-07-13T10:32:52;99623.53;;;40.35;28.64
62201;BME280;48197;42.732;27.192;2023-07-13T10:35:19;99618.66;;;40.37;28.40
62201;BME280;48197;42.732;27.192;2023-07-13T10:37:51;99619.81;;;40.44;27.89
62201;BME280;48197;42.732;27.192;2023-07-13T10:40:22;99615.13;;;40.60;27.56
62201;BME280;48197;42.732;27.192;2023-07-13T10:42:51;99605.84;;;40.84;27.82
62201;BME280;48197;42.732;27.192;2023-07-13T10:45:22;99608.56;;;41.03;27.12
62201;BME280;48197;42.732;27.192;2023-07-13T10:47:50;99603.25;;;41.21;26.53
62201;BME280;48197;42.732;27.192;2023-07-13T10:50:26;99605.59;;;41.46;26.32
62201;BME280;48197;42.732;27.192;2023-07-13T10:53:01;99601.72;;;41.89;25.85
62201;BME280;48197;42.732;27.192;2023-07-13T10:55:54;99595.56;;;42.18;25.81
62201;BME280;48197;42.732;27.192;2023-07-13T10:58:28;99599.72;;;42.27;25.40
62201;BME280;48197;42.732;27.192;2023-07-13T11:01:03;99599.38;;;42.09;25.66
62201;BME280;48197;42.732;27.192;2023-07-13T11:03:30;99595.41;;;42.51;25.49
62201;BME280;48197;42.732;27.192;2023-07-13T11:06:11;99594.09;;;42.66;25.14
62201;BME280;48197;42.732;27.192;2023-07-13T11:13:59;99601.59;;;42.95;25.07
62201;BME280;48197;42.732;27.192;2023-07-13T11:16:44;99604.00;;;43.50;24.54
62201;BME280;48197;42.732;27.192;2023-07-13T11:24:29;99603.97;;;43.89;23.25
62201;BME280;48197;42.732;27.192;2023-07-13T11:30:13;99598.88;;;42.73;24.33
62201;BME280;48197;42.732;27.192;2023-07-13T11:32:51;99596.47;;;42.70;23.91
62201;BME280;48197;42.732;27.192;2023-07-13T11:35:35;99607.16;;;41.26;25.52
62201;BME280;48197;42.732;27.192;2023-07-13T11:38:03;99598.13;;;40.55;26.49
62201;BME280;48197;42.732;27.192;2023-07-13T11:40:36;99601.03;;;39.92;27.34
62201;BME280;48197;42.732;27.192;2023-07-13T11:43:03;99595.50;;;39.55;27.98
62201;BME280;48197;42.732;27.192;2023-07-13T11:45:33;99596.47;;;39.29;27.93
62201;BME280;48197;42.732;27.192;2023-07-13T11:48:01;99594.78;;;39.45;27.42
62201;BME280;48197;42.732;27.192;2023-07-13T11:50:28;99591.69;;;39.63;28.13
62201;BME280;48197;42.732;27.192;2023-07-13T11:52:57;99584.53;;;40.26;27.47
62201;BME280;48197;42.732;27.192;2023-07-13T11:55:25;99592.88;;;40.85;27.65
62201;BME280;48197;42.732;27.192;2023-07-13T11:57:56;99596.81;;;42.38;26.08
62201;BME280;48197;42.732;27.192;2023-07-13T12:00:26;99587.31;;;44.45;23.53
62201;BME280;48197;42.732;27.192;2023-07-13T12:02:55;99592.31;;;45.02;22.12
62201;BME280;48197;42.732;27.192;2023-07-13T12:05:24;99594.47;;;44.44;22.91
62201;BME280;48197;42.732;27.192;2023-07-13T12:07:51;99595.28;;;42.49;24.26
62201;BME280;48197;42.732;27.192;2023-07-13T12:10:21;99597.75;;;41.04;26.15
62201;BME280;48197;42.732;27.192;2023-07-13T12:15:16;99596.31;;;39.17;28.38
62201;BME280;48197;42.732;27.192;2023-07-13T12:17:42;99599.28;;;40.09;27.85
62201;BME280;48197;42.732;27.192;2023-07-13T12:22:48;99585.94;;;43.65;24.23
62201;BME280;48197;42.732;27.192;2023-07-13T12:25:16;99578.88;;;44.10;23.94
62201;BME280;48197;42.732;27.192;2023-07-13T12:27:51;99574.97;;;43.12;24.55
62201;BME280;48197;42.732;27.192;2023-07-13T12:30:25;99571.28;;;41.54;25.61
62201;BME280;48197;42.732;27.192;2023-07-13T12:33:00;99565.97;;;40.51;27.13
62201;BME280;48197;42.732;27.192;2023-07-13T12:35:28;99573.66;;;39.33;28.56
62201;BME280;48197;42.732;27.192;2023-07-13T12:37:57;99570.94;;;38.57;29.46
62201;BME280;48197;42.732;27.192;2023-07-13T12:40:31;99559.00;;;39.91;28.34
62201;BME280;48197;42.732;27.192;2023-07-13T12:42:59;99551.91;;;41.80;26.39
62201;BME280;48197;42.732;27.192;2023-07-13T12:45:30;99555.38;;;42.50;25.04
62201;BME280;48197;42.732;27.192;2023-07-13T12:47:59;99554.47;;;43.89;23.68
62201;BME280;48197;42.732;27.192;2023-07-13T12:50:34;99547.09;;;45.17;22.70
62201;BME280;48197;42.732;27.192;2023-07-13T12:53:05;99541.88;;;46.42;21.60
62201;BME280;48197;42.732;27.192;2023-07-13T12:55:56;99537.50;;;46.77;20.74
62201;BME280;48197;42.732;27.192;2023-07-13T12:58:34;99532.66;;;46.84;20.37
62201;BME280;48197;42.732;27.192;2023-07-13T13:01:02;99524.97;;;46.93;20.37
62201;BME280;48197;42.732;27.192;2023-07-13T13:03:34;99526.78;;;47.20;19.68
62201;BME280;48197;42.732;27.192;2023-07-13T13:06:04;99525.28;;;47.57;19.16
62201;BME280;48197;42.732;27.192;2023-07-13T13:08:32;99512.75;;;47.94;19.06
62201;BME280;48197;42.732;27.192;2023-07-13T13:11:00;99509.50;;;47.46;19.43
62201;BME280;48197;42.732;27.192;2023-07-13T13:13:27;99502.72;;;47.03;19.67
62201;BME280;48197;42.732;27.192;2023-07-13T13:15:55;99503.16;;;46.60;20.11
62201;BME280;48197;42.732;27.192;2023-07-13T13:18:23;99506.25;;;46.64;19.86
62201;BME280;48197;42.732;27.192;2023-07-13T13:20:51;99498.09;;;46.78;19.50
62201;BME280;48197;42.732;27.192;2023-07-13T13:23:19;99493.66;;;46.77;19.58
62201;BME280;48197;42.732;27.192;2023-07-13T13:25:49;99497.81;;;45.87;20.14
62201;BME280;48197;42.732;27.192;2023-07-13T13:28:18;99502.28;;;45.72;20.78
62201;BME280;48197;42.732;27.192;2023-07-13T13:30:46;99495.50;;;45.67;20.88
62201;BME280;48197;42.732;27.192;2023-07-13T13:33:14;99497.09;;;45.38;21.29
62201;BME280;48197;42.732;27.192;2023-07-13T13:35:42;99491.25;;;44.77;21.42
62201;BME280;48197;42.732;27.192;2023-07-13T13:38:12;99494.19;;;44.47;21.53
62201;BME280;48197;42.732;27.192;2023-07-13T13:40:41;99495.69;;;44.78;21.39
62201;BME280;48197;42.732;27.192;2023-07-13T13:43:18;99492.44;;;45.17;21.25
62201;BME280;48197;42.732;27.192;2023-07-13T13:45:45;99488.06;;;45.32;21.05
62201;BME280;48197;42.732;27.192;2023-07-13T13:48:15;99489.09;;;45.55;21.02
62201;BME280;48197;42.732;27.192;2023-07-13T13:50:43;99481.00;;;45.53;21.13
62201;BME280;48197;42.732;27.192;2023-07-13T13:53:11;99482.22;;;45.80;20.48